MSC Claudia — 3FZA6 — position and weather

sailwx.info

Track history (hours):
 
Tides and Currents Weather Stations Pressure Air Temp Water Temp Dewpoint Dewpoint Depression Visibility Wind Speed Wind Dir Waves Ship Positions

MSC Claudia

Last reported at 2014-Sep-18 22:26 UTC. Time now 2014-Sep-19 13:51 UTC.
Position N 46°38' W 071°56'.

Length 292 m; draft 10.7 m.

Type: Ship (hazmat cat A). MMSI: 370606000.

Date/timePositionNaut miles runAvg speedWind from/ knotsBaromVisibWave heightAir tempDewpointWater temp
2014-Sep-18 22:26N 46°38' W 071°56'1112.2
2014-Sep-18 21:33N 46°33' W 072°09'9 9.3
2014-Sep-18 20:33N 46°26' W 072°19'10 9.7
2014-Sep-18 19:33N 46°21' W 072°31'9 8.9
2014-Sep-18 18:33N 46°16' W 072°41'1111.4
2014-Sep-18 17:33N 46°10' W 072°56'1510.3
2014-Sep-18 16:09N 46°00' W 073°11'711.8
2014-Sep-18 15:31N 45°53' W 073°15'1212.0
2014-Sep-18 14:33N 45°44' W 073°25'1010.4
2014-Sep-18 13:33N 45°34' W 073°30'0 0.2
2014-Sep-18 12:33N 45°34' W 073°31'0 0.0
2014-Sep-18 11:30N 45°34' W 073°31'0 0.0
2014-Sep-18 10:33N 45°34' W 073°31'0 0.0
2014-Sep-18 09:33N 45°34' W 073°31'0 0.0
2014-Sep-18 08:33N 45°34' W 073°31'0 0.0
2014-Sep-18 07:33N 45°34' W 073°31'0 0.0
2014-Sep-18 06:33N 45°34' W 073°31'0 0.0
2014-Sep-18 05:33N 45°34' W 073°31'0 0.0
2014-Sep-18 04:33N 45°34' W 073°31'0 0.0
2014-Sep-18 03:33N 45°34' W 073°31'0 0.0
2014-Sep-18 02:33N 45°34' W 073°31'0 0.0
2014-Sep-18 01:33N 45°34' W 073°31'0 0.0
2014-Sep-18 00:33N 45°34' W 073°31'0 0.0
2014-Sep-17 23:33N 45°34' W 073°31'0 0.0
2014-Sep-17 22:33N 45°34' W 073°31'0 0.0
2014-Sep-17 21:33N 45°34' W 073°31'0 0.0
2014-Sep-17 20:33N 45°34' W 073°31'0 0.0
2014-Sep-17 19:32N 45°34' W 073°31'0 0.0
2014-Sep-17 18:32N 45°34' W 073°31'0 0.0
2014-Sep-17 17:32N 45°34' W 073°31'0 0.0
2014-Sep-17 16:32N 45°34' W 073°31'0 0.0
2014-Sep-17 15:29N 45°34' W 073°31'0 0.0
2014-Sep-17 14:32N 45°34' W 073°31'0 0.0
2014-Sep-17 13:32N 45°34' W 073°31'0 0.0
2014-Sep-17 12:32N 45°34' W 073°31'0 0.0
2014-Sep-17 11:32N 45°34' W 073°31'0 0.0
2014-Sep-17 10:32N 45°34' W 073°31'0 0.0
2014-Sep-17 09:32N 45°34' W 073°31'0 0.0
2014-Sep-17 08:32N 45°34' W 073°31'0 0.0
2014-Sep-17 07:32N 45°34' W 073°31'0 0.0
2014-Sep-17 06:32N 45°34' W 073°31'0 0.0
2014-Sep-17 05:32N 45°34' W 073°31'0 0.0
2014-Sep-17 04:32N 45°34' W 073°31'0 0.0
2014-Sep-17 03:32N 45°34' W 073°31'0 0.0
2014-Sep-16 23:32N 45°34' W 073°31'0 0.0
2014-Sep-16 22:32N 45°34' W 073°31'0 0.0
2014-Sep-16 21:32N 45°34' W 073°31'0 0.0
2014-Sep-16 20:32N 45°34' W 073°31'0 0.0
2014-Sep-16 19:32N 45°34' W 073°31'0 0.0
2014-Sep-16 18:32N 45°34' W 073°31'0 0.0
2014-Sep-16 17:32N 45°34' W 073°31'0 0.0
2014-Sep-16 16:32N 45°34' W 073°31'1 0.9
2014-Sep-16 15:33N 45°35' W 073°30'7 6.9
2014-Sep-16 14:33N 45°42' W 073°27'9 8.8
2014-Sep-16 13:34N 45°49' W 073°19'9 8.8
2014-Sep-16 12:34N 45°56' W 073°13'8 8.3
2014-Sep-16 11:33N 46°03' W 073°07'13 9.1
2014-Sep-16 10:09N 46°12' W 072°53'610.6
2014-Sep-16 09:33N 46°15' W 072°45'9 8.7
2014-Sep-16 08:33N 46°18' W 072°34'8 8.2
2014-Sep-16 07:33N 46°24' W 072°25'9 9.2
2014-Sep-16 06:33N 46°29' W 072°14'1010.0
2014-Sep-16 05:33N 46°35' W 072°02'  
2014-Sep-09 08:15N 37°54' W 008°55'4 4.9
2014-Sep-09 07:26N 37°56' W 008°51'0 0.1
2014-Sep-09 02:12N 37°56' W 008°51'  
Track history (hours):
 
Tides and Currents Weather Stations Pressure Air Temp Water Temp Dewpoint Dewpoint Depression Visibility Wind Speed Wind Dir Waves Ship Positions

MSC Claudia

Last reported at 2014-Sep-18 22:26 UTC. Time now 2014-Sep-19 13:51 UTC.
Position N 46°38' W 071°56'.

Length 292 m; draft 10.7 m.

Type: Ship (hazmat cat A). MMSI: 370606000.

Date/timePositionNaut miles runAvg speedWind from/ knotsBaromVisibWave heightAir tempDewpointWater temp
2014-Sep-18 22:26N 46°38' W 071°56'1112.2
2014-Sep-18 21:33N 46°33' W 072°09'9 9.3
2014-Sep-18 20:33N 46°26' W 072°19'10 9.7
2014-Sep-18 19:33N 46°21' W 072°31'9 8.9
2014-Sep-18 18:33N 46°16' W 072°41'1111.4
2014-Sep-18 17:33N 46°10' W 072°56'1510.3
2014-Sep-18 16:09N 46°00' W 073°11'711.8
2014-Sep-18 15:31N 45°53' W 073°15'1212.0
2014-Sep-18 14:33N 45°44' W 073°25'1010.4
2014-Sep-18 13:33N 45°34' W 073°30'0 0.2
2014-Sep-18 12:33N 45°34' W 073°31'0 0.0
2014-Sep-18 11:30N 45°34' W 073°31'0 0.0
2014-Sep-18 10:33N 45°34' W 073°31'0 0.0
2014-Sep-18 09:33N 45°34' W 073°31'0 0.0
2014-Sep-18 08:33N 45°34' W 073°31'0 0.0
2014-Sep-18 07:33N 45°34' W 073°31'0 0.0
2014-Sep-18 06:33N 45°34' W 073°31'0 0.0
2014-Sep-18 05:33N 45°34' W 073°31'0 0.0
2014-Sep-18 04:33N 45°34' W 073°31'0 0.0
2014-Sep-18 03:33N 45°34' W 073°31'0 0.0
2014-Sep-18 02:33N 45°34' W 073°31'0 0.0
2014-Sep-18 01:33N 45°34' W 073°31'0 0.0
2014-Sep-18 00:33N 45°34' W 073°31'0 0.0
2014-Sep-17 23:33N 45°34' W 073°31'0 0.0
2014-Sep-17 22:33N 45°34' W 073°31'0 0.0
2014-Sep-17 21:33N 45°34' W 073°31'0 0.0
2014-Sep-17 20:33N 45°34' W 073°31'0 0.0
2014-Sep-17 19:32N 45°34' W 073°31'0 0.0
2014-Sep-17 18:32N 45°34' W 073°31'0 0.0
2014-Sep-17 17:32N 45°34' W 073°31'0 0.0
2014-Sep-17 16:32N 45°34' W 073°31'0 0.0
2014-Sep-17 15:29N 45°34' W 073°31'0 0.0
2014-Sep-17 14:32N 45°34' W 073°31'0 0.0
2014-Sep-17 13:32N 45°34' W 073°31'0 0.0
2014-Sep-17 12:32N 45°34' W 073°31'0 0.0
2014-Sep-17 11:32N 45°34' W 073°31'0 0.0
2014-Sep-17 10:32N 45°34' W 073°31'0 0.0
2014-Sep-17 09:32N 45°34' W 073°31'0 0.0
2014-Sep-17 08:32N 45°34' W 073°31'0 0.0
2014-Sep-17 07:32N 45°34' W 073°31'0 0.0
2014-Sep-17 06:32N 45°34' W 073°31'0 0.0
2014-Sep-17 05:32N 45°34' W 073°31'0 0.0
2014-Sep-17 04:32N 45°34' W 073°31'0 0.0
2014-Sep-17 03:32N 45°34' W 073°31'0 0.0
2014-Sep-16 23:32N 45°34' W 073°31'0 0.0
2014-Sep-16 22:32N 45°34' W 073°31'0 0.0
2014-Sep-16 21:32N 45°34' W 073°31'0 0.0
2014-Sep-16 20:32N 45°34' W 073°31'0 0.0
2014-Sep-16 19:32N 45°34' W 073°31'0 0.0
2014-Sep-16 18:32N 45°34' W 073°31'0 0.0
2014-Sep-16 17:32N 45°34' W 073°31'0 0.0
2014-Sep-16 16:32N 45°34' W 073°31'1 0.9
2014-Sep-16 15:33N 45°35' W 073°30'7 6.9
2014-Sep-16 14:33N 45°42' W 073°27'9 8.8
2014-Sep-16 13:34N 45°49' W 073°19'9 8.8
2014-Sep-16 12:34N 45°56' W 073°13'8 8.3
2014-Sep-16 11:33N 46°03' W 073°07'13 9.1
2014-Sep-16 10:09N 46°12' W 072°53'610.6
2014-Sep-16 09:33N 46°15' W 072°45'9 8.7
2014-Sep-16 08:33N 46°18' W 072°34'8 8.2
2014-Sep-16 07:33N 46°24' W 072°25'9 9.2
2014-Sep-16 06:33N 46°29' W 072°14'1010.0
2014-Sep-16 05:33N 46°35' W 072°02'  
2014-Sep-09 08:15N 37°54' W 008°55'4 4.9
2014-Sep-09 07:26N 37°56' W 008°51'0 0.1
2014-Sep-09 02:12N 37°56' W 008°51'  

Dump ship's entire track history